sensor_id;sensor_type;location;lat;lon;timestamp;temperature;humidity
51914;DHT22;37940;53.002;6.930;2022-07-03T00:01:24;17.80;99.90
51914;DHT22;37940;53.002;6.930;2022-07-03T00:03:51;17.70;99.90
51914;DHT22;37940;53.002;6.930;2022-07-03T00:06:16;17.70;99.90
51914;DHT22;37940;53.002;6.930;2022-07-03T00:08:42;17.60;99.90
51914;DHT22;37940;53.002;6.930;2022-07-03T00:11:08;17.60;99.90
51914;DHT22;37940;53.002;6.930;2022-07-03T00:13:34;17.50;99.90
51914;DHT22;37940;53.002;6.930;2022-07-03T00:16:00;17.40;99.90
51914;DHT22;37940;53.002;6.930;2022-07-03T00:18:26;17.40;99.90
51914;DHT22;37940;53.002;6.930;2022-07-03T00:21:00;17.30;99.90
51914;DHT22;37940;53.002;6.930;2022-07-03T00:23:50;17.30;99.90
51914;DHT22;37940;53.002;6.930;2022-07-03T00:26:19;17.30;99.90
51914;DHT22;37940;53.002;6.930;2022-07-03T00:28:46;17.20;99.90
51914;DHT22;37940;53.002;6.930;2022-07-03T00:31:12;17.10;99.90
51914;DHT22;37940;53.002;6.930;2022-07-03T00:33:39;17.10;99.90
51914;DHT22;37940;53.002;6.930;2022-07-03T00:36:06;17.10;99.90
51914;DHT22;37940;53.002;6.930;2022-07-03T00:38:32;17.00;99.90
51914;DHT22;37940;53.002;6.930;2022-07-03T00:40:58;17.00;99.90
51914;DHT22;37940;53.002;6.930;2022-07-03T00:43:25;17.00;99.90
51914;DHT22;37940;53.002;6.930;2022-07-03T00:45:53;17.00;99.90
51914;DHT22;37940;53.002;6.930;2022-07-03T00:48:29;16.90;99.90
51914;DHT22;37940;53.002;6.930;2022-07-03T00:50:56;16.90;99.90
51914;DHT22;37940;53.002;6.930;2022-07-03T00:53:29;16.90;99.90
51914;DHT22;37940;53.002;6.930;2022-07-03T00:55:58;16.80;99.90
51914;DHT22;37940;53.002;6.930;2022-07-03T00:58:25;16.80;99.90
51914;DHT22;37940;53.002;6.930;2022-07-03T01:00:52;16.70;99.90
51914;DHT22;37940;53.002;6.930;2022-07-03T01:03:21;16.70;99.90
51914;DHT22;37940;53.002;6.930;2022-07-03T01:05:52;16.60;99.90
51914;DHT22;37940;53.002;6.930;2022-07-03T01:26:57;16.20;99.90
51914;DHT22;37940;53.002;6.930;2022-07-03T01:29:38;16.30;99.90
51914;DHT22;37940;53.002;6.930;2022-07-03T01:32:07;16.20;99.90
51914;DHT22;37940;53.002;6.930;2022-07-03T01:34:34;16.10;99.90
51914;DHT22;37940;53.002;6.930;2022-07-03T01:37:03;16.10;99.90
51914;DHT22;37940;53.002;6.930;2022-07-03T01:39:30;16.10;99.90
51914;DHT22;37940;53.002;6.930;2022-07-03T01:41:59;16.10;99.90
51914;DHT22;37940;53.002;6.930;2022-07-03T01:44:27;16.10;99.90
51914;DHT22;37940;53.002;6.930;2022-07-03T01:46:56;16.10;99.90
51914;DHT22;37940;53.002;6.930;2022-07-03T01:49:26;16.10;99.90
51914;DHT22;37940;53.002;6.930;2022-07-03T01:51:53;16.10;99.90
51914;DHT22;37940;53.002;6.930;2022-07-03T01:54:24;16.10;99.90
51914;DHT22;37940;53.002;6.930;2022-07-03T01:56:50;16.10;99.90
51914;DHT22;37940;53.002;6.930;2022-07-03T01:59:16;16.10;99.90
51914;DHT22;37940;53.002;6.930;2022-07-03T02:01:51;16.00;99.90
51914;DHT22;37940;53.002;6.930;2022-07-03T02:04:33;16.00;99.90
51914;DHT22;37940;53.002;6.930;2022-07-03T02:07:08;15.90;99.90
51914;DHT22;37940;53.002;6.930;2022-07-03T02:09:46;15.90;99.90
51914;DHT22;37940;53.002;6.930;2022-07-03T02:12:13;15.80;99.90
51914;DHT22;37940;53.002;6.930;2022-07-03T02:14:52;15.80;99.90
51914;DHT22;37940;53.002;6.930;2022-07-03T02:17:21;15.70;99.90
51914;DHT22;37940;53.002;6.930;2022-07-03T02:20:00;15.70;99.90
51914;DHT22;37940;53.002;6.930;2022-07-03T02:22:37;15.70;99.90
51914;DHT22;37940;53.002;6.930;2022-07-03T02:25:08;15.60;99.90
51914;DHT22;37940;53.002;6.930;2022-07-03T02:28:04;15.60;99.90
51914;DHT22;37940;53.002;6.930;2022-07-03T02:30:30;15.50;99.90
51914;DHT22;37940;53.002;6.930;2022-07-03T02:33:01;15.50;99.90
51914;DHT22;37940;53.002;6.930;2022-07-03T02:35:31;15.50;99.90
51914;DHT22;37940;53.002;6.930;2022-07-03T02:38:17;15.40;99.90
51914;DHT22;37940;53.002;6.930;2022-07-03T02:54:55;15.20;99.90
51914;DHT22;37940;53.002;6.930;2022-07-03T02:57:22;15.10;99.90
51914;DHT22;37940;53.002;6.930;2022-07-03T03:05:13;15.10;99.90
51914;DHT22;37940;53.002;6.930;2022-07-03T03:10:19;14.90;99.90
51914;DHT22;37940;53.002;6.930;2022-07-03T03:12:50;15.00;99.90
51914;DHT22;37940;53.002;6.930;2022-07-03T03:15:20;14.90;99.90
51914;DHT22;37940;53.002;6.930;2022-07-03T03:17:50;14.80;99.90
51914;DHT22;37940;53.002;6.930;2022-07-03T03:20:22;14.80;99.90
51914;DHT22;37940;53.002;6.930;2022-07-03T03:25:54;14.70;99.90
51914;DHT22;37940;53.002;6.930;2022-07-03T03:28:20;14.60;99.90
51914;DHT22;37940;53.002;6.930;2022-07-03T03:30:48;14.60;99.90
51914;DHT22;37940;53.002;6.930;2022-07-03T03:33:35;14.60;99.90
51914;DHT22;37940;53.002;6.930;2022-07-03T03:36:06;14.60;99.90
51914;DHT22;37940;53.002;6.930;2022-07-03T03:38:32;14.60;99.90
51914;DHT22;37940;53.002;6.930;2022-07-03T03:40:58;14.70;99.90
51914;DHT22;37940;53.002;6.930;2022-07-03T03:43:24;14.70;99.90
51914;DHT22;37940;53.002;6.930;2022-07-03T03:45:50;14.70;99.90
51914;DHT22;37940;53.002;6.930;2022-07-03T03:48:16;14.80;99.90
51914;DHT22;37940;53.002;6.930;2022-07-03T03:50:41;14.80;99.90
51914;DHT22;37940;53.002;6.930;2022-07-03T03:53:13;15.10;99.90
51914;DHT22;37940;53.002;6.930;2022-07-03T03:58:18;15.00;99.90
51914;DHT22;37940;53.002;6.930;2022-07-03T04:00:44;15.00;99.90
51914;DHT22;37940;53.002;6.930;2022-07-03T04:03:10;15.10;99.90
51914;DHT22;37940;53.002;6.930;2022-07-03T04:05:35;15.20;99.90
51914;DHT22;37940;53.002;6.930;2022-07-03T04:08:01;15.30;99.90
51914;DHT22;37940;53.002;6.930;2022-07-03T04:10:27;15.30;99.90
51914;DHT22;37940;53.002;6.930;2022-07-03T04:12:52;15.30;99.90
51914;DHT22;37940;53.002;6.930;2022-07-03T04:15:18;15.40;99.90
51914;DHT22;37940;53.002;6.930;2022-07-03T04:17:44;15.40;99.90
51914;DHT22;37940;53.002;6.930;2022-07-03T04:20:10;15.50;99.90
51914;DHT22;37940;53.002;6.930;2022-07-03T04:22:36;15.50;99.90
51914;DHT22;37940;53.002;6.930;2022-07-03T04:25:01;15.50;99.90
51914;DHT22;37940;53.002;6.930;2022-07-03T04:27:27;15.50;99.90
51914;DHT22;37940;53.002;6.930;2022-07-03T04:29:55;15.50;99.90
51914;DHT22;37940;53.002;6.930;2022-07-03T04:32:20;15.60;99.90
51914;DHT22;37940;53.002;6.930;2022-07-03T04:34:46;15.60;99.90
51914;DHT22;37940;53.002;6.930;2022-07-03T04:37:12;15.60;99.90
51914;DHT22;37940;53.002;6.930;2022-07-03T04:39:37;15.70;99.90
51914;DHT22;37940;53.002;6.930;2022-07-03T04:42:03;15.70;99.90
51914;DHT22;37940;53.002;6.930;2022-07-03T04:44:29;15.70;99.90
51914;DHT22;37940;53.002;6.930;2022-07-03T04:46:56;15.70;99.90
51914;DHT22;37940;53.002;6.930;2022-07-03T04:49:22;15.80;99.90
51914;DHT22;37940;53.002;6.930;2022-07-03T04:51:47;15.70;99.90
51914;DHT22;37940;53.002;6.930;2022-07-03T04:54:13;15.70;99.90
51914;DHT22;37940;53.002;6.930;2022-07-03T04:56:39;15.80;99.90
51914;DHT22;37940;53.002;6.930;2022-07-03T04:59:04;15.80;99.90
51914;DHT22;37940;53.002;6.930;2022-07-03T05:01:30;15.80;99.90
51914;DHT22;37940;53.002;6.930;2022-07-03T05:03:56;15.70;99.90
51914;DHT22;37940;53.002;6.930;2022-07-03T05:06:21;15.70;99.90
51914;DHT22;37940;53.002;6.930;2022-07-03T05:08:47;15.70;99.90
51914;DHT22;37940;53.002;6.930;2022-07-03T05:11:13;15.80;99.90
51914;DHT22;37940;53.002;6.930;2022-07-03T05:13:38;15.70;99.90
51914;DHT22;37940;53.002;6.930;2022-07-03T05:16:04;15.70;99.90
51914;DHT22;37940;53.002;6.930;2022-07-03T05:18:30;15.80;99.90
51914;DHT22;37940;53.002;6.930;2022-07-03T05:20:55;15.80;99.90
51914;DHT22;37940;53.002;6.930;2022-07-03T05:23:21;15.90;99.90
51914;DHT22;37940;53.002;6.930;2022-07-03T05:25:47;16.10;99.90
51914;DHT22;37940;53.002;6.930;2022-07-03T05:28:12;16.50;99.90
51914;DHT22;37940;53.002;6.930;2022-07-03T05:30:38;17.30;99.90
51914;DHT22;37940;53.002;6.930;2022-07-03T05:33:04;18.50;99.90
51914;DHT22;37940;53.002;6.930;2022-07-03T05:35:29;19.80;99.90
51914;DHT22;37940;53.002;6.930;2022-07-03T05:37:55;21.10;99.90
51914;DHT22;37940;53.002;6.930;2022-07-03T05:40:21;22.10;99.90
51914;DHT22;37940;53.002;6.930;2022-07-03T05:42:47;23.30;99.90
51914;DHT22;37940;53.002;6.930;2022-07-03T05:45:14;24.40;99.90
51914;DHT22;37940;53.002;6.930;2022-07-03T05:47:39;25.30;99.90
51914;DHT22;37940;53.002;6.930;2022-07-03T05:50:06;26.20;99.90
51914;DHT22;37940;53.002;6.930;2022-07-03T05:52:31;27.00;99.90
51914;DHT22;37940;53.002;6.930;2022-07-03T05:55:12;27.70;99.90
51914;DHT22;37940;53.002;6.930;2022-07-03T05:57:43;28.30;99.90
51914;DHT22;37940;53.002;6.930;2022-07-03T06:00:10;28.80;99.90
51914;DHT22;37940;53.002;6.930;2022-07-03T06:06:08;29.20;97.00
51914;DHT22;37940;53.002;6.930;2022-07-03T06:08:34;28.70;98.30
51914;DHT22;37940;53.002;6.930;2022-07-03T06:10:59;28.80;97.00
51914;DHT22;37940;53.002;6.930;2022-07-03T06:13:25;29.10;95.90
51914;DHT22;37940;53.002;6.930;2022-07-03T06:15:53;29.20;94.80
51914;DHT22;37940;53.002;6.930;2022-07-03T06:18:18;29.30;94.60
51914;DHT22;37940;53.002;6.930;2022-07-03T06:20:44;29.80;94.20
51914;DHT22;37940;53.002;6.930;2022-07-03T06:23:10;30.20;93.70
51914;DHT22;37940;53.002;6.930;2022-07-03T06:25:35;30.20;92.70
51914;DHT22;37940;53.002;6.930;2022-07-03T06:28:01;29.90;92.10
51914;DHT22;37940;53.002;6.930;2022-07-03T06:30:27;30.10;91.60
51914;DHT22;37940;53.002;6.930;2022-07-03T06:36:09;30.00;87.00
51914;DHT22;37940;53.002;6.930;2022-07-03T06:38:35;28.70;91.10
51914;DHT22;37940;53.002;6.930;2022-07-03T06:41:01;27.60;91.40
51914;DHT22;37940;53.002;6.930;2022-07-03T06:43:27;27.00;92.30
51914;DHT22;37940;53.002;6.930;2022-07-03T06:45:52;26.70;92.50
51914;DHT22;37940;53.002;6.930;2022-07-03T06:48:18;26.30;92.60
51914;DHT22;37940;53.002;6.930;2022-07-03T06:51:02;25.80;92.90
51914;DHT22;37940;53.002;6.930;2022-07-03T06:53:28;25.20;93.10
51914;DHT22;37940;53.002;6.930;2022-07-03T06:55:54;24.80;94.20
51914;DHT22;37940;53.002;6.930;2022-07-03T06:58:20;24.40;94.50
51914;DHT22;37940;53.002;6.930;2022-07-03T07:00:45;24.10;95.00
51914;DHT22;37940;53.002;6.930;2022-07-03T07:03:31;23.80;95.60
51914;DHT22;37940;53.002;6.930;2022-07-03T07:06:16;23.50;95.40
51914;DHT22;37940;53.002;6.930;2022-07-03T07:08:58;23.50;96.70
51914;DHT22;37940;53.002;6.930;2022-07-03T07:11:24;23.60;97.10
51914;DHT22;37940;53.002;6.930;2022-07-03T07:14:04;23.70;96.90
51914;DHT22;37940;53.002;6.930;2022-07-03T07:16:29;23.90;95.00
51914;DHT22;37940;53.002;6.930;2022-07-03T07:18:55;23.90;95.60
51914;DHT22;37940;53.002;6.930;2022-07-03T07:21:21;23.90;94.90
51914;DHT22;37940;53.002;6.930;2022-07-03T07:23:46;23.80;95.30
51914;DHT22;37940;53.002;6.930;2022-07-03T07:26:12;23.70;95.80
51914;DHT22;37940;53.002;6.930;2022-07-03T07:28:38;23.60;96.90
51914;DHT22;37940;53.002;6.930;2022-07-03T07:31:03;23.50;96.80
51914;DHT22;37940;53.002;6.930;2022-07-03T07:33:29;23.40;96.90
51914;DHT22;37940;53.002;6.930;2022-07-03T07:35:55;23.30;97.00
51914;DHT22;37940;53.002;6.930;2022-07-03T07:38:20;23.20;97.40
51914;DHT22;37940;53.002;6.930;2022-07-03T07:40:46;23.10;97.80
51914;DHT22;37940;53.002;6.930;2022-07-03T07:43:12;23.10;98.50
51914;DHT22;37940;53.002;6.930;2022-07-03T07:45:38;23.10;98.90
51914;DHT22;37940;53.002;6.930;2022-07-03T07:48:04;23.10;99.00
51914;DHT22;37940;53.002;6.930;2022-07-03T07:50:30;23.10;99.00
51914;DHT22;37940;53.002;6.930;2022-07-03T07:52:56;23.20;98.90
51914;DHT22;37940;53.002;6.930;2022-07-03T07:55:21;23.30;98.50
51914;DHT22;37940;53.002;6.930;2022-07-03T07:57:48;23.50;98.90
51914;DHT22;37940;53.002;6.930;2022-07-03T08:00:16;24.00;99.30
51914;DHT22;37940;53.002;6.930;2022-07-03T08:02:43;24.10;99.00
51914;DHT22;37940;53.002;6.930;2022-07-03T08:05:28;24.30;99.20
51914;DHT22;37940;53.002;6.930;2022-07-03T08:08:14;24.90;98.20
51914;DHT22;37940;53.002;6.930;2022-07-03T08:10:41;25.10;96.90
51914;DHT22;37940;53.002;6.930;2022-07-03T08:13:11;25.00;97.30
51914;DHT22;37940;53.002;6.930;2022-07-03T08:15:40;25.00;97.50
51914;DHT22;37940;53.002;6.930;2022-07-03T08:18:09;24.90;97.60
51914;DHT22;37940;53.002;6.930;2022-07-03T08:20:41;24.90;97.80
51914;DHT22;37940;53.002;6.930;2022-07-03T08:23:07;24.70;97.00
51914;DHT22;37940;53.002;6.930;2022-07-03T08:25:43;24.30;97.40
51914;DHT22;37940;53.002;6.930;2022-07-03T08:28:12;24.20;98.50
51914;DHT22;37940;53.002;6.930;2022-07-03T08:30:37;24.30;98.80
51914;DHT22;37940;53.002;6.930;2022-07-03T08:33:06;24.30;98.60
51914;DHT22;37940;53.002;6.930;2022-07-03T08:35:32;24.50;99.10
51914;DHT22;37940;53.002;6.930;2022-07-03T08:37:58;24.70;99.00
51914;DHT22;37940;53.002;6.930;2022-07-03T08:40:35;24.70;98.40
51914;DHT22;37940;53.002;6.930;2022-07-03T08:43:01;25.00;98.30
51914;DHT22;37940;53.002;6.930;2022-07-03T08:45:30;25.10;98.40
51914;DHT22;37940;53.002;6.930;2022-07-03T08:47:58;25.20;98.10
51914;DHT22;37940;53.002;6.930;2022-07-03T08:50:25;25.00;98.10
51914;DHT22;37940;53.002;6.930;2022-07-03T08:52:56;25.00;98.40
51914;DHT22;37940;53.002;6.930;2022-07-03T08:55:38;25.00;98.40
51914;DHT22;37940;53.002;6.930;2022-07-03T08:58:10;24.90;98.40
51914;DHT22;37940;53.002;6.930;2022-07-03T09:00:50;24.70;98.00
51914;DHT22;37940;53.002;6.930;2022-07-03T09:03:38;24.70;98.50
51914;DHT22;37940;53.002;6.930;2022-07-03T09:06:12;24.60;98.50
51914;DHT22;37940;53.002;6.930;2022-07-03T09:08:41;24.30;98.10
51914;DHT22;37940;53.002;6.930;2022-07-03T09:11:13;24.30;98.90
51914;DHT22;37940;53.002;6.930;2022-07-03T09:13:39;24.20;98.60
51914;DHT22;37940;53.002;6.930;2022-07-03T09:16:04;24.20;99.30
51914;DHT22;37940;53.002;6.930;2022-07-03T09:18:48;24.10;98.90
51914;DHT22;37940;53.002;6.930;2022-07-03T09:21:16;24.00;99.90
51914;DHT22;37940;53.002;6.930;2022-07-03T09:23:43;23.90;99.30
51914;DHT22;37940;53.002;6.930;2022-07-03T09:26:17;23.90;99.50
51914;DHT22;37940;53.002;6.930;2022-07-03T09:28:51;24.00;99.80
51914;DHT22;37940;53.002;6.930;2022-07-03T09:31:19;23.90;99.30
51914;DHT22;37940;53.002;6.930;2022-07-03T09:33:58;23.90;99.10
51914;DHT22;37940;53.002;6.930;2022-07-03T09:39:24;23.80;99.90
51914;DHT22;37940;53.002;6.930;2022-07-03T09:44:43;23.60;99.90
51914;DHT22;37940;53.002;6.930;2022-07-03T09:49:58;23.40;99.90
51914;DHT22;37940;53.002;6.930;2022-07-03T09:52:28;23.70;99.90
51914;DHT22;37940;53.002;6.930;2022-07-03T10:00:12;24.30;99.90
51914;DHT22;37940;53.002;6.930;2022-07-03T10:02:59;24.10;99.90
51914;DHT22;37940;53.002;6.930;2022-07-03T10:05:30;24.40;99.90
51914;DHT22;37940;53.002;6.930;2022-07-03T10:10:26;25.20;99.90
51914;DHT22;37940;53.002;6.930;2022-07-03T10:12:53;25.60;99.90
51914;DHT22;37940;53.002;6.930;2022-07-03T10:15:20;26.00;99.50
51914;DHT22;37940;53.002;6.930;2022-07-03T10:17:51;26.10;98.90
51914;DHT22;37940;53.002;6.930;2022-07-03T10:22:52;26.30;97.60
51914;DHT22;37940;53.002;6.930;2022-07-03T10:25:18;26.50;97.10
51914;DHT22;37940;53.002;6.930;2022-07-03T10:27:48;26.40;96.10
51914;DHT22;37940;53.002;6.930;2022-07-03T10:30:15;26.30;95.30
51914;DHT22;37940;53.002;6.930;2022-07-03T10:32:44;26.20;96.00
51914;DHT22;37940;53.002;6.930;2022-07-03T10:35:12;26.50;96.10
51914;DHT22;37940;53.002;6.930;2022-07-03T10:43:41;26.60;93.70
51914;DHT22;37940;53.002;6.930;2022-07-03T10:46:27;26.20;93.70
51914;DHT22;37940;53.002;6.930;2022-07-03T10:48:57;25.90;95.20
51914;DHT22;37940;53.002;6.930;2022-07-03T10:51:24;25.80;95.10
51914;DHT22;37940;53.002;6.930;2022-07-03T10:53:50;25.70;95.30
51914;DHT22;37940;53.002;6.930;2022-07-03T11:12:59;26.50;93.20
51914;DHT22;37940;53.002;6.930;2022-07-03T11:18:25;26.80;91.90
51914;DHT22;37940;53.002;6.930;2022-07-03T11:23:28;26.90;91.70
51914;DHT22;37940;53.002;6.930;2022-07-03T11:25:59;27.00;92.40
51914;DHT22;37940;53.002;6.930;2022-07-03T11:41:41;26.50;91.20
51914;DHT22;37940;53.002;6.930;2022-07-03T11:44:09;26.40;91.20
51914;DHT22;37940;53.002;6.930;2022-07-03T11:46:37;26.50;91.30
51914;DHT22;37940;53.002;6.930;2022-07-03T11:51:33;26.70;90.40
51914;DHT22;37940;53.002;6.930;2022-07-03T11:53:59;26.70;90.80
51914;DHT22;37940;53.002;6.930;2022-07-03T11:56:25;26.80;90.90
51914;DHT22;37940;53.002;6.930;2022-07-03T11:58:53;27.00;90.50
51914;DHT22;37940;53.002;6.930;2022-07-03T12:03:48;27.00;90.60
51914;DHT22;37940;53.002;6.930;2022-07-03T12:06:14;27.00;90.60
51914;DHT22;37940;53.002;6.930;2022-07-03T12:08:40;26.70;89.90
51914;DHT22;37940;53.002;6.930;2022-07-03T12:11:15;26.60;90.50
51914;DHT22;37940;53.002;6.930;2022-07-03T12:13:42;26.60;89.80
51914;DHT22;37940;53.002;6.930;2022-07-03T12:16:12;26.80;89.50
51914;DHT22;37940;53.002;6.930;2022-07-03T12:18:52;27.00;90.10
51914;DHT22;37940;53.002;6.930;2022-07-03T12:21:38;27.30;90.30
51914;DHT22;37940;53.002;6.930;2022-07-03T12:24:12;27.60;89.70
51914;DHT22;37940;53.002;6.930;2022-07-03T12:26:38;27.70;86.50
51914;DHT22;37940;53.002;6.930;2022-07-03T12:29:10;27.50;86.60
51914;DHT22;37940;53.002;6.930;2022-07-03T12:31:44;27.50;88.30
51914;DHT22;37940;53.002;6.930;2022-07-03T12:34:11;27.50;89.00
51914;DHT22;37940;53.002;6.930;2022-07-03T12:36:38;27.40;87.60
51914;DHT22;37940;53.002;6.930;2022-07-03T12:39:04;27.40;88.10
51914;DHT22;37940;53.002;6.930;2022-07-03T12:41:29;27.20;87.50
51914;DHT22;37940;53.002;6.930;2022-07-03T12:43:58;26.80;87.00
51914;DHT22;37940;53.002;6.930;2022-07-03T12:46:35;26.50;88.00
51914;DHT22;37940;53.002;6.930;2022-07-03T12:49:11;26.50;89.20
51914;DHT22;37940;53.002;6.930;2022-07-03T12:51:44;26.50;88.60
51914;DHT22;37940;53.002;6.930;2022-07-03T12:54:14;26.50;89.00
51914;DHT22;37940;53.002;6.930;2022-07-03T12:56:41;26.50;88.60
51914;DHT22;37940;53.002;6.930;2022-07-03T12:59:24;26.40;88.00
51914;DHT22;37940;53.002;6.930;2022-07-03T13:02:03;26.00;86.30
51914;DHT22;37940;53.002;6.930;2022-07-03T13:04:32;25.70;90.10
51914;DHT22;37940;53.002;6.930;2022-07-03T13:07:06;25.90;90.00
51914;DHT22;37940;53.002;6.930;2022-07-03T13:09:35;25.80;90.50
51914;DHT22;37940;53.002;6.930;2022-07-03T13:12:02;25.70;91.10
51914;DHT22;37940;53.002;6.930;2022-07-03T13:14:28;25.50;91.10
51914;DHT22;37940;53.002;6.930;2022-07-03T13:16:55;25.50;91.80
51914;DHT22;37940;53.002;6.930;2022-07-03T13:19:23;25.60;92.40
51914;DHT22;37940;53.002;6.930;2022-07-03T13:21:51;25.60;91.50
51914;DHT22;37940;53.002;6.930;2022-07-03T13:24:18;25.80;92.10
51914;DHT22;37940;53.002;6.930;2022-07-03T13:26:44;26.00;92.30
51914;DHT22;37940;53.002;6.930;2022-07-03T13:29:10;26.20;92.00
51914;DHT22;37940;53.002;6.930;2022-07-03T13:31:36;26.10;91.70
51914;DHT22;37940;53.002;6.930;2022-07-03T13:34:02;25.80;91.50
51914;DHT22;37940;53.002;6.930;2022-07-03T13:36:29;25.50;91.60
51914;DHT22;37940;53.002;6.930;2022-07-03T13:38:55;25.10;92.00
51914;DHT22;37940;53.002;6.930;2022-07-03T13:41:21;24.90;92.40
51914;DHT22;37940;53.002;6.930;2022-07-03T13:43:49;24.70;92.20
51914;DHT22;37940;53.002;6.930;2022-07-03T13:46:15;24.80;92.50
51914;DHT22;37940;53.002;6.930;2022-07-03T13:48:41;25.00;92.40
51914;DHT22;37940;53.002;6.930;2022-07-03T13:51:07;25.00;91.50
51914;DHT22;37940;53.002;6.930;2022-07-03T13:53:33;25.00;91.80
51914;DHT22;37940;53.002;6.930;2022-07-03T13:56:00;24.90;92.00
51914;DHT22;37940;53.002;6.930;2022-07-03T13:58:26;24.80;92.10
51914;DHT22;37940;53.002;6.930;2022-07-03T14:00:53;24.50;92.30
51914;DHT22;37940;53.002;6.930;2022-07-03T14:03:19;24.30;92.60
51914;DHT22;37940;53.002;6.930;2022-07-03T14:05:44;24.10;92.90
51914;DHT22;37940;53.002;6.930;2022-07-03T14:08:10;24.00;92.50
51914;DHT22;37940;53.002;6.930;2022-07-03T14:10:37;23.90;92.20
51914;DHT22;37940;53.002;6.930;2022-07-03T14:13:04;23.80;92.80
51914;DHT22;37940;53.002;6.930;2022-07-03T14:15:29;23.70;93.50
51914;DHT22;37940;53.002;6.930;2022-07-03T14:17:55;23.50;93.70
51914;DHT22;37940;53.002;6.930;2022-07-03T14:20:25;23.40;94.50
51914;DHT22;37940;53.002;6.930;2022-07-03T14:22:51;23.10;95.80
51914;DHT22;37940;53.002;6.930;2022-07-03T14:25:17;22.90;96.70
51914;DHT22;37940;53.002;6.930;2022-07-03T14:27:43;22.40;98.60
51914;DHT22;37940;53.002;6.930;2022-07-03T14:30:27;21.80;99.90
51914;DHT22;37940;53.002;6.930;2022-07-03T14:33:11;21.10;99.90
51914;DHT22;37940;53.002;6.930;2022-07-03T14:35:37;20.40;99.90
51914;DHT22;37940;53.002;6.930;2022-07-03T14:38:03;19.80;99.90
51914;DHT22;37940;53.002;6.930;2022-07-03T14:40:29;19.50;99.90
51914;DHT22;37940;53.002;6.930;2022-07-03T14:42:56;19.00;99.90
51914;DHT22;37940;53.002;6.930;2022-07-03T14:45:23;18.80;99.90
51914;DHT22;37940;53.002;6.930;2022-07-03T14:47:48;18.60;99.90
51914;DHT22;37940;53.002;6.930;2022-07-03T14:50:14;18.50;99.90
51914;DHT22;37940;53.002;6.930;2022-07-03T14:52:40;18.60;99.90
51914;DHT22;37940;53.002;6.930;2022-07-03T14:55:06;18.60;99.90
51914;DHT22;37940;53.002;6.930;2022-07-03T15:03:05;18.70;99.90
51914;DHT22;37940;53.002;6.930;2022-07-03T15:05:39;18.70;99.90
51914;DHT22;37940;53.002;6.930;2022-07-03T15:08:26;18.50;99.90
51914;DHT22;37940;53.002;6.930;2022-07-03T15:11:02;18.40;99.90
51914;DHT22;37940;53.002;6.930;2022-07-03T15:13:29;18.50;99.90
51914;DHT22;37940;53.002;6.930;2022-07-03T15:15:56;18.70;99.90
51914;DHT22;37940;53.002;6.930;2022-07-03T15:18:22;19.10;99.90
51914;DHT22;37940;53.002;6.930;2022-07-03T15:20:50;19.50;99.90
51914;DHT22;37940;53.002;6.930;2022-07-03T15:23:18;19.80;99.90
51914;DHT22;37940;53.002;6.930;2022-07-03T15:25:45;19.90;99.90
51914;DHT22;37940;53.002;6.930;2022-07-03T15:28:11;20.00;99.90
51914;DHT22;37940;53.002;6.930;2022-07-03T15:30:38;19.80;99.90
51914;DHT22;37940;53.002;6.930;2022-07-03T15:33:04;19.80;99.90
51914;DHT22;37940;53.002;6.930;2022-07-03T15:35:30;19.90;99.90
51914;DHT22;37940;53.002;6.930;2022-07-03T15:38:13;19.90;99.90
51914;DHT22;37940;53.002;6.930;2022-07-03T15:43:21;19.30;99.90
51914;DHT22;37940;53.002;6.930;2022-07-03T15:48:56;18.90;99.90
51914;DHT22;37940;53.002;6.930;2022-07-03T15:54:27;18.90;99.90
51914;DHT22;37940;53.002;6.930;2022-07-03T15:56:58;18.80;99.90
51914;DHT22;37940;53.002;6.930;2022-07-03T15:59:29;18.70;99.90
51914;DHT22;37940;53.002;6.930;2022-07-03T16:01:59;18.60;99.90
51914;DHT22;37940;53.002;6.930;2022-07-03T16:07:03;18.60;99.90
51914;DHT22;37940;53.002;6.930;2022-07-03T16:09:32;18.60;99.90
51914;DHT22;37940;53.002;6.930;2022-07-03T16:11:58;18.60;99.90
51914;DHT22;37940;53.002;6.930;2022-07-03T16:14:28;18.70;99.90
51914;DHT22;37940;53.002;6.930;2022-07-03T16:16:58;18.70;99.90
51914;DHT22;37940;53.002;6.930;2022-07-03T16:19:26;18.80;99.90
51914;DHT22;37940;53.002;6.930;2022-07-03T16:21:53;18.90;99.90
51914;DHT22;37940;53.002;6.930;2022-07-03T16:24:23;18.90;99.90
51914;DHT22;37940;53.002;6.930;2022-07-03T16:26:50;18.90;99.90
51914;DHT22;37940;53.002;6.930;2022-07-03T16:29:17;19.00;99.90
51914;DHT22;37940;53.002;6.930;2022-07-03T16:31:45;18.90;99.90
51914;DHT22;37940;53.002;6.930;2022-07-03T16:36:53;19.00;99.90
51914;DHT22;37940;53.002;6.930;2022-07-03T16:39:29;19.00;99.90
51914;DHT22;37940;53.002;6.930;2022-07-03T16:41:59;19.00;99.90
51914;DHT22;37940;53.002;6.930;2022-07-03T16:44:27;19.00;99.90
51914;DHT22;37940;53.002;6.930;2022-07-03T16:46:55;19.10;99.90
51914;DHT22;37940;53.002;6.930;2022-07-03T16:49:24;19.00;99.90
51914;DHT22;37940;53.002;6.930;2022-07-03T16:51:56;19.00;99.90
51914;DHT22;37940;53.002;6.930;2022-07-03T16:54:23;19.00;99.90
51914;DHT22;37940;53.002;6.930;2022-07-03T16:56:49;18.80;99.90
51914;DHT22;37940;53.002;6.930;2022-07-03T16:59:17;18.70;99.90
51914;DHT22;37940;53.002;6.930;2022-07-03T17:01:43;18.70;99.90
51914;DHT22;37940;53.002;6.930;2022-07-03T17:04:09;18.70;99.90
51914;DHT22;37940;53.002;6.930;2022-07-03T17:06:38;18.60;99.90
51914;DHT22;37940;53.002;6.930;2022-07-03T17:09:04;18.60;99.90
51914;DHT22;37940;53.002;6.930;2022-07-03T17:11:31;18.60;99.90
51914;DHT22;37940;53.002;6.930;2022-07-03T17:14:00;18.60;99.90
51914;DHT22;37940;53.002;6.930;2022-07-03T17:16:27;18.60;99.90
51914;DHT22;37940;53.002;6.930;2022-07-03T17:18:55;18.70;99.90
51914;DHT22;37940;53.002;6.930;2022-07-03T17:21:29;18.70;99.90
51914;DHT22;37940;53.002;6.930;2022-07-03T17:23:56;18.70;99.90
51914;DHT22;37940;53.002;6.930;2022-07-03T17:26:24;18.70;99.90
51914;DHT22;37940;53.002;6.930;2022-07-03T17:29:04;19.00;99.90
51914;DHT22;37940;53.002;6.930;2022-07-03T17:31:41;19.10;99.90
51914;DHT22;37940;53.002;6.930;2022-07-03T17:34:09;19.30;99.90
51914;DHT22;37940;53.002;6.930;2022-07-03T17:36:36;19.20;99.90
51914;DHT22;37940;53.002;6.930;2022-07-03T17:39:03;19.20;99.90
51914;DHT22;37940;53.002;6.930;2022-07-03T17:41:31;19.10;99.90
51914;DHT22;37940;53.002;6.930;2022-07-03T17:43:58;18.90;99.90
51914;DHT22;37940;53.002;6.930;2022-07-03T17:46:24;18.70;99.90
51914;DHT22;37940;53.002;6.930;2022-07-03T17:48:54;18.50;99.90
51914;DHT22;37940;53.002;6.930;2022-07-03T17:51:22;18.40;99.90
51914;DHT22;37940;53.002;6.930;2022-07-03T17:53:48;18.40;99.90
51914;DHT22;37940;53.002;6.930;2022-07-03T17:56:16;18.40;99.90
51914;DHT22;37940;53.002;6.930;2022-07-03T17:58:44;18.40;99.90